Peru, Vermont
Current Conditions -  °F | °C
As of 6:54 AM on Friday 19 Dec 2014 (Local Time) from KVSF Reporting Station
Overcast Overcast  
Wind Chill: 23°   Ceiling: 2300
Heat Index: 29°   Visibility: 10mi
Dew Point: 21°   Wind: 6mph
Humidity: 72%   Direction: NA
Pressure: 29.93"   Gusts: NA
Location:  43.23°N, 72.9°W
Report Text: KVSF 191154Z AUTO VRB05KT 10SM OVC023 M02/M06 A2993 RMK AO2 SLP144 T10171061 11011 21017 53010 TSNO
Loading
Personal Weather Stations






























Interactive Weather Map New forecast layout! Learn more

10-Day Weather Forecast

Advertisements
Track Severe Weather on mobile